Time;durP1;ratioP1;P1;durP2;ratioP2;P2;SDS_P1;SDS_P2;PMS_P1;PMS_P2;Temp;Humidity;BMP_temperature;BMP_pressure;BME280_temperature;BME280_humidity;BME280_pressure;Samples;Min_cycle;Max_cycle;Signal;HPM_P1;HPM_P2
2021/07/27 00:00:21;;;;;;;6.70;6.20;;;20.60;99.90;;;;;;5007191;28;20625;-74
2021/07/27 00:02:47;;;;;;;32.40;30.30;;;20.60;99.90;;;;;;5010977;28;20185;-73
2021/07/27 00:05:12;;;;;;;7.10;6.60;;;20.60;99.90;;;;;;4988372;28;20670;-74
2021/07/27 00:07:38;;;;;;;7.23;6.70;;;20.60;99.90;;;;;;4998776;28;20217;-74
2021/07/27 00:10:07;;;;;;;19.10;18.10;;;20.60;99.90;;;;;;5011543;28;20200;-74
2021/07/27 00:12:36;;;;;;;7.13;6.40;;;20.60;99.90;;;;;;5009174;28;20622;-74
2021/07/27 00:15:02;;;;;;;;;;;20.50;99.90;;;;;;5009238;28;20604;-73
2021/07/27 00:17:29;;;;;;;7.10;6.60;;;20.50;99.90;;;;;;5012116;28;24553;-74
2021/07/27 00:20:05;;;;;;;6.40;5.90;;;20.50;99.90;;;;;;5013562;28;20662;-73
2021/07/27 00:22:30;;;;;;;6.37;5.77;;;20.50;99.90;;;;;;5010935;28;20585;-74
2021/07/27 00:24:58;;;;;;;;;;;20.50;99.90;;;;;;5010504;28;20614;-73
2021/07/27 00:27:24;;;;;;;;;;;20.50;99.90;;;;;;5016520;28;24068;-72
2021/07/27 00:29:58;;;;;;;;;;;20.50;99.90;;;;;;4998356;28;19975;-73
2021/07/27 00:32:28;;;;;;;7.63;7.03;;;20.50;99.90;;;;;;4993217;28;24785;-74
2021/07/27 00:34:56;;;;;;;7.60;7.00;;;20.50;99.90;;;;;;5016539;28;20633;-74
2021/07/27 00:37:28;;;;;;;46.40;43.67;;;20.50;99.90;;;;;;5000204;28;20647;-73
2021/07/27 00:39:56;;;;;;;6.60;6.10;;;20.50;99.90;;;;;;5021451;28;20667;-73
2021/07/27 00:42:24;;;;;;;7.13;6.43;;;20.50;99.90;;;;;;5002841;28;20695;-74
2021/07/27 00:44:54;;;;;;;6.73;6.23;;;20.40;99.90;;;;;;5012103;28;20604;-72
2021/07/27 00:47:19;;;;;;;7.20;6.70;;;20.40;99.90;;;;;;4994000;28;20644;-75
2021/07/27 00:49:45;;;;;;;87.90;81.40;;;20.40;99.90;;;;;;4996647;28;20958;-73
2021/07/27 00:52:11;;;;;;;7.30;6.70;;;20.40;99.90;;;;;;5010953;28;26951;-75
2021/07/27 00:54:40;;;;;;;26.93;24.83;;;20.40;99.90;;;;;;4995152;28;20721;-74
2021/07/27 00:57:10;;;;;;;36.80;33.80;;;20.30;99.90;;;;;;5012379;28;20659;-74
2021/07/27 00:59:38;;;;;;;7.75;7.25;;;20.30;99.90;;;;;;5018873;28;20768;-76
2021/07/27 01:02:03;;;;;;;6.90;6.40;;;20.30;99.90;;;;;;5017589;28;20212;-74
2021/07/27 01:04:29;;;;;;;7.20;6.60;;;20.20;99.90;;;;;;5004322;28;20607;-74
2021/07/27 01:07:00;;;;;;;38.97;36.53;;;20.30;99.90;;;;;;5005926;28;20267;-74
2021/07/27 01:09:28;;;;;;;7.30;6.80;;;20.20;99.90;;;;;;5014484;28;20193;-73
2021/07/27 01:11:59;;;;;;;8.27;7.57;;;20.20;99.90;;;;;;5027289;28;20607;-73
2021/07/27 01:14:26;;;;;;;7.10;6.50;;;20.10;99.90;;;;;;5019389;28;20654;-74
2021/07/27 01:16:54;;;;;;;7.20;6.37;;;20.20;99.90;;;;;;5024588;28;20689;-73
2021/07/27 01:19:38;;;;;;;10.73;9.83;;;20.10;99.90;;;;;;5002182;28;20644;-75
2021/07/27 01:43:46;;;;;;;7.70;7.10;;;20.00;99.90;;;;;;5002466;28;20232;-73
2021/07/27 01:46:15;;;;;;;8.47;7.57;;;19.90;99.90;;;;;;5010745;28;20731;-72
2021/07/27 01:48:48;;;;;;;6.80;6.30;;;19.90;99.90;;;;;;5007002;28;20231;-72
2021/07/27 01:51:17;;;;;;;7.70;7.10;;;19.90;99.90;;;;;;5024954;28;21151;-72
2021/07/27 01:53:46;;;;;;;9.83;8.77;;;19.90;99.90;;;;;;5024958;28;20673;-72
2021/07/27 01:56:12;;;;;;;8.30;7.53;;;19.90;99.90;;;;;;5025266;28;20703;-73
2021/07/27 01:58:40;;;;;;;14.83;13.53;;;19.90;99.90;;;;;;5028707;28;20643;-72
2021/07/27 02:01:06;;;;;;;8.57;7.77;;;19.90;99.90;;;;;;5033178;28;20244;-71
2021/07/27 02:03:31;;;;;;;9.80;7.63;;;19.90;99.90;;;;;;5021996;28;20694;-74
2021/07/27 02:06:02;;;;;;;7.90;7.20;;;19.90;99.90;;;;;;5029050;28;20488;-72
2021/07/27 02:08:27;;;;;;;8.00;7.30;;;19.90;99.90;;;;;;5021589;28;20197;-71
2021/07/27 02:10:56;;;;;;;8.17;7.50;;;19.90;99.90;;;;;;5028199;28;20627;-71
2021/07/27 02:13:29;;;;;;;25.20;23.27;;;19.90;99.90;;;;;;5026388;28;20189;-73
2021/07/27 02:16:04;;;;;;;8.17;7.57;;;19.90;99.90;;;;;;5009849;28;20706;-70
2021/07/27 02:18:32;;;;;;;8.47;7.77;;;19.90;99.90;;;;;;5007041;28;20635;-71
2021/07/27 02:20:58;;;;;;;8.13;7.33;;;19.90;99.90;;;;;;5024689;28;20615;-71
2021/07/27 02:23:28;;;;;;;8.40;7.80;;;19.90;99.90;;;;;;5009787;28;20651;-70
2021/07/27 02:25:53;;;;;;;8.70;8.00;;;19.80;99.90;;;;;;5011786;28;20657;-71
2021/07/27 02:28:21;;;;;;;9.00;8.20;;;19.80;99.90;;;;;;5025640;28;20639;-72
2021/07/27 02:30:56;;;;;;;8.20;7.40;;;19.80;99.90;;;;;;5025750;28;20205;-72
2021/07/27 02:33:25;;;;;;;8.70;8.00;;;19.80;99.90;;;;;;5004769;28;21169;-71
2021/07/27 02:35:52;;;;;;;8.70;7.90;;;19.90;99.90;;;;;;5027472;28;20655;-70
2021/07/27 02:38:22;;;;;;;8.73;8.03;;;19.90;99.90;;;;;;5018769;28;20736;-70
2021/07/27 02:40:53;;;;;;;44.47;41.30;;;19.80;99.90;;;;;;5004335;28;20680;-72
2021/07/27 02:43:21;;;;;;;11.37;10.20;;;19.80;99.90;;;;;;5002086;28;20631;-73
2021/07/27 02:45:50;;;;;;;9.73;8.93;;;19.90;99.90;;;;;;5022864;28;20643;-71
2021/07/27 02:48:21;;;;;;;10.50;9.70;;;19.90;99.90;;;;;;5002947;28;20666;-70
2021/07/27 02:50:48;;;;;;;9.40;8.70;;;19.90;99.90;;;;;;5020526;28;20595;-71
2021/07/27 02:53:14;;;;;;;10.63;9.67;;;19.90;99.90;;;;;;5004584;28;21166;-71
2021/07/27 02:55:42;;;;;;;9.87;9.07;;;19.90;99.90;;;;;;5019898;28;21546;-70
2021/07/27 02:58:11;;;;;;;9.37;8.67;;;19.90;99.90;;;;;;5020705;28;20857;-73
2021/07/27 03:00:36;;;;;;;11.00;10.00;;;19.90;99.90;;;;;;5020587;28;20623;-71
2021/07/27 03:03:07;;;;;;;10.87;10.07;;;19.90;99.90;;;;;;5005057;28;20675;-71
2021/07/27 03:05:32;;;;;;;9.93;9.23;;;19.90;99.90;;;;;;5004825;28;20312;-72
2021/07/27 03:07:59;;;;;;;11.13;10.27;;;20.00;99.90;;;;;;5004867;28;21677;-71
2021/07/27 03:10:27;;;;;;;10.07;9.37;;;19.90;99.90;;;;;;5019817;28;20234;-71
2021/07/27 03:12:57;;;;;;;10.07;9.27;;;19.90;99.90;;;;;;5024327;28;20670;-72
2021/07/27 03:15:25;;;;;;;9.73;9.03;;;20.00;99.90;;;;;;5025591;28;21038;-71
2021/07/27 03:17:59;;;;;;;11.97;10.87;;;20.00;99.90;;;;;;5022709;28;21172;-71
2021/07/27 03:20:31;;;;;;;10.07;9.27;;;19.90;99.90;;;;;;5023537;28;20657;-72
2021/07/27 03:22:59;;;;;;;10.07;9.37;;;19.90;99.90;;;;;;5025192;28;20578;-71
2021/07/27 03:25:25;;;;;;;9.80;9.10;;;20.00;99.90;;;;;;5022680;28;20599;-71
2021/07/27 03:27:54;;;;;;;11.50;10.50;;;20.00;99.90;;;;;;5023608;28;20652;-71
2021/07/27 03:30:24;;;;;;;9.90;9.10;;;19.90;99.90;;;;;;5013609;28;20610;-72
2021/07/27 03:32:50;;;;;;;10.73;9.87;;;19.90;99.90;;;;;;5018650;28;20620;-72
2021/07/27 03:35:16;;;;;;;21.83;19.83;;;19.90;99.90;;;;;;5015512;28;20616;-71
2021/07/27 03:37:42;;;;;;;10.70;9.80;;;19.90;99.90;;;;;;5021253;28;20216;-71
2021/07/27 03:40:11;;;;;;;11.60;10.43;;;19.90;99.90;;;;;;5019437;28;21238;-71
2021/07/27 03:42:46;;;;;;;9.80;9.00;;;19.90;99.90;;;;;;5020795;28;20608;-71
2021/07/27 03:45:12;;;;;;;10.60;9.80;;;19.90;99.90;;;;;;5021629;28;20710;-72
2021/07/27 03:47:37;;;;;;;11.00;10.00;;;19.90;99.90;;;;;;5015575;28;21019;-71
2021/07/27 03:50:03;;;;;;;11.23;10.30;;;19.90;99.90;;;;;;5006083;28;20624;-71
2021/07/27 03:52:29;;;;;;;9.30;8.50;;;19.90;99.90;;;;;;5023297;28;20344;-71
2021/07/27 03:54:54;;;;;;;9.50;8.70;;;19.90;99.90;;;;;;5027703;28;20683;-72
2021/07/27 03:57:23;;;;;;;10.50;9.50;;;19.90;99.90;;;;;;5023271;28;20205;-71
2021/07/27 04:00:01;;;;;;;9.90;9.20;;;19.90;99.90;;;;;;5005370;28;20196;-71
2021/07/27 04:02:29;;;;;;;9.20;8.50;;;19.90;99.90;;;;;;5026087;28;21178;-72
2021/07/27 04:04:54;;;;;;;9.00;8.30;;;20.00;99.90;;;;;;5021777;28;20617;-71
2021/07/27 04:07:22;;;;;;;10.03;9.20;;;20.00;99.90;;;;;;5010445;28;20750;-71
2021/07/27 04:09:48;;;;;;;10.60;9.77;;;20.00;99.90;;;;;;5025992;28;20200;-71
2021/07/27 04:12:18;;;;;;;10.00;9.20;;;20.00;99.90;;;;;;5023889;28;20597;-71
2021/07/27 04:14:43;;;;;;;9.77;8.93;;;20.00;99.90;;;;;;5021344;28;20181;-71
2021/07/27 04:17:09;;;;;;;10.67;9.87;;;20.00;99.90;;;;;;5024721;28;20636;-72
2021/07/27 04:19:34;;;;;;;10.67;9.77;;;20.10;99.90;;;;;;5022136;28;20722;-71
2021/07/27 04:22:03;;;;;;;11.37;10.57;;;20.10;99.90;;;;;;5027340;28;20189;-71
2021/07/27 04:24:30;;;;;;;10.73;9.87;;;20.10;99.90;;;;;;5023135;28;20189;-71
2021/07/27 04:26:56;;;;;;;19.07;17.60;;;20.10;99.90;;;;;;5026428;28;20713;-71
2021/07/27 04:29:24;;;;;;;9.97;9.17;;;20.10;99.90;;;;;;5025300;28;20600;-73
2021/07/27 04:31:52;;;;;;;10.30;9.50;;;20.10;99.90;;;;;;5023313;28;20647;-71
2021/07/27 04:34:18;;;;;;;10.80;9.90;;;20.10;99.90;;;;;;5029452;28;20598;-72
2021/07/27 04:36:45;;;;;;;10.30;9.50;;;20.20;99.90;;;;;;5009354;28;20666;-71
2021/07/27 04:39:11;;;;;;;10.80;9.80;;;20.20;99.90;;;;;;5025222;28;20634;-73
2021/07/27 04:41:37;;;;;;;11.00;10.00;;;20.20;99.90;;;;;;5024424;28;20596;-71
2021/07/27 04:44:10;;;;;;;10.40;9.60;;;20.20;99.90;;;;;;5023117;28;20190;-71
2021/07/27 04:46:35;;;;;;;11.10;10.17;;;20.30;99.90;;;;;;5024156;28;20284;-72
2021/07/27 04:49:04;;;;;;;16.73;15.33;;;20.30;99.90;;;;;;5021594;28;21253;-71
2021/07/27 04:51:34;;;;;;;9.80;8.90;;;20.30;99.90;;;;;;5022154;28;20192;-72
2021/07/27 04:54:04;;;;;;;11.47;10.43;;;20.30;99.90;;;;;;5028444;28;20591;-72
2021/07/27 04:56:36;;;;;;;10.70;9.70;;;20.40;99.90;;;;;;5022603;28;20685;-71
2021/07/27 04:59:02;;;;;;;11.03;10.13;;;20.40;99.90;;;;;;5019892;28;20730;-71
2021/07/27 05:01:27;;;;;;;9.23;8.53;;;20.50;99.90;;;;;;5023586;28;21051;-70
2021/07/27 05:03:58;;;;;;;9.77;8.97;;;20.50;99.90;;;;;;5024993;28;20685;-71
2021/07/27 05:06:26;;;;;;;10.10;9.20;;;20.50;99.90;;;;;;5018047;28;20206;-71
2021/07/27 05:08:52;;;;;;;11.43;10.43;;;20.50;99.90;;;;;;5024257;28;20627;-72
2021/07/27 05:11:22;;;;;;;10.23;9.33;;;20.60;99.90;;;;;;5008388;28;21249;-72
2021/07/27 05:13:57;;;;;;;10.03;9.13;;;20.60;99.90;;;;;;5025405;28;20288;-71
2021/07/27 05:16:23;;;;;;;11.00;9.73;;;20.60;99.90;;;;;;5017047;28;20985;-71
2021/07/27 05:18:51;;;;;;;10.10;9.40;;;20.70;99.90;;;;;;5024722;28;20712;-70
2021/07/27 05:21:23;;;;;;;10.83;9.90;;;20.70;99.90;;;;;;5021795;28;20660;-72
2021/07/27 05:23:48;;;;;;;11.07;10.17;;;20.70;99.90;;;;;;5021004;28;20666;-71
2021/07/27 05:31:30;;;;;;;11.50;10.47;;;20.90;99.90;;;;;;4989494;28;20670;-74
2021/07/27 05:33:58;;;;;;;11.17;10.17;;;21.00;99.90;;;;;;4992430;28;20605;-74
2021/07/27 05:36:23;;;;;;;10.57;9.67;;;21.00;99.90;;;;;;4969134;28;20198;-73
2021/07/27 05:38:50;;;;;;;11.73;10.73;;;21.10;99.90;;;;;;4954977;28;21016;-72
2021/07/27 05:41:16;;;;;;;10.20;9.30;;;21.20;99.90;;;;;;4953147;28;20639;-74
2021/07/27 05:43:41;;;;;;;11.67;10.67;;;21.20;99.90;;;;;;4974863;28;20657;-71
2021/07/27 05:46:09;;;;;;;11.57;10.47;;;21.30;99.90;;;;;;4979662;28;20187;-73
2021/07/27 05:48:35;;;;;;;13.33;12.00;;;21.40;99.90;;;;;;4976620;28;20249;-72
2021/07/27 05:51:03;;;;;;;13.60;12.40;;;21.40;99.90;;;;;;4974901;28;21197;-74
2021/07/27 05:53:28;;;;;;;13.57;12.47;;;21.40;99.90;;;;;;4980176;28;20224;-72
2021/07/27 05:55:54;;;;;;;13.97;12.77;;;21.40;99.90;;;;;;4978843;28;20629;-72
2021/07/27 05:58:19;;;;;;;13.03;11.73;;;21.30;99.90;;;;;;4974361;28;20245;-74
2021/07/27 06:00:45;;;;;;;17.90;16.50;;;21.30;99.90;;;;;;4975131;28;20607;-74
2021/07/27 06:03:12;;;;;;;12.60;11.50;;;21.30;99.90;;;;;;4969480;28;20254;-71
2021/07/27 06:05:37;;;;;;;15.80;14.47;;;21.30;99.90;;;;;;4966173;28;20195;-73
2021/07/27 06:08:03;;;;;;;15.33;13.90;;;21.20;99.90;;;;;;4966951;28;20661;-74
2021/07/27 06:10:29;;;;;;;16.77;14.97;;;21.20;99.90;;;;;;4973683;28;20277;-71
2021/07/27 06:12:56;;;;;;;14.63;13.23;;;21.10;99.90;;;;;;4973581;28;20273;-74
2021/07/27 06:15:21;;;;;;;15.40;13.83;;;21.10;99.90;;;;;;4970170;28;20732;-72
2021/07/27 06:17:47;;;;;;;16.07;14.57;;;21.10;99.90;;;;;;4974540;28;20621;-72
2021/07/27 06:20:13;;;;;;;16.37;14.87;;;21.10;99.90;;;;;;4973444;28;20218;-74
2021/07/27 06:22:38;;;;;;;16.17;14.77;;;21.00;99.90;;;;;;4974686;28;20226;-72
2021/07/27 06:25:09;;;;;;;16.40;14.80;;;21.00;99.90;;;;;;4972301;28;20191;-73
2021/07/27 06:27:34;;;;;;;15.60;14.20;;;21.00;99.90;;;;;;4977828;28;20207;-73
2021/07/27 06:30:00;;;;;;;17.33;15.70;;;21.00;99.90;;;;;;4976884;28;20642;-71
2021/07/27 06:32:25;;;;;;;15.30;13.90;;;21.00;99.90;;;;;;4978109;28;20224;-73
2021/07/27 06:34:51;;;;;;;15.60;14.20;;;21.00;99.90;;;;;;4977896;28;20201;-72
2021/07/27 06:37:16;;;;;;;15.17;13.77;;;21.00;99.90;;;;;;4975586;28;20190;-73
2021/07/27 06:39:42;;;;;;;14.40;13.10;;;21.00;99.90;;;;;;4977877;28;20225;-73
2021/07/27 06:42:08;;;;;;;15.77;14.30;;;21.10;99.90;;;;;;4969648;28;22065;-74
2021/07/27 06:44:34;;;;;;;16.30;14.80;;;21.20;99.90;;;;;;4968672;28;20187;-72
2021/07/27 06:46:59;;;;;;;14.33;13.10;;;21.20;99.90;;;;;;4973912;28;20672;-73
2021/07/27 06:49:30;;;;;;;14.63;13.33;;;21.30;99.90;;;;;;4967081;28;20201;-72
2021/07/27 06:51:55;;;;;;;14.20;12.83;;;21.40;99.90;;;;;;4979319;28;20237;-73
2021/07/27 06:54:21;;;;;;;14.90;13.50;;;21.50;99.90;;;;;;4967009;28;20617;-72
2021/07/27 06:56:46;;;;;;;14.13;12.77;;;21.50;99.90;;;;;;4968863;28;20197;-72
2021/07/27 06:59:12;;;;;;;15.27;13.87;;;21.60;99.90;;;;;;4972523;28;20210;-75
2021/07/27 07:01:37;;;;;;;13.07;11.93;;;21.70;99.90;;;;;;4967995;28;20278;-74
2021/07/27 07:04:03;;;;;;;12.07;10.97;;;21.70;99.90;;;;;;4974341;28;20197;-72
2021/07/27 07:06:28;;;;;;;13.93;12.73;;;21.90;99.90;;;;;;4977777;28;20277;-74
2021/07/27 07:08:54;;;;;;;14.33;12.90;;;22.00;99.90;;;;;;4977550;28;20242;-74
2021/07/27 07:11:19;;;;;;;11.60;10.60;;;22.00;99.90;;;;;;4978432;28;20661;-73
2021/07/27 07:13:45;;;;;;;13.07;11.77;;;22.00;99.90;;;;;;4975483;28;20622;-73
2021/07/27 07:16:12;;;;;;;14.53;13.23;;;22.10;99.90;;;;;;4978605;28;20190;-72
2021/07/27 07:18:38;;;;;;;12.73;11.60;;;22.20;99.90;;;;;;4971513;28;20748;-73
2021/07/27 07:21:07;;;;;;;15.20;13.80;;;22.20;99.90;;;;;;4971546;28;21182;-74
2021/07/27 07:23:34;;;;;;;12.80;11.70;;;22.30;99.90;;;;;;4977201;28;20720;-72
2021/07/27 07:26:03;;;;;;;13.17;11.87;;;22.30;99.90;;;;;;4981895;28;20606;-73
2021/07/27 07:28:28;;;;;;;13.20;12.00;;;22.40;99.90;;;;;;4970108;28;20646;-71
2021/07/27 07:30:54;;;;;;;11.50;10.53;;;22.40;99.90;;;;;;4975535;28;21291;-74
2021/07/27 07:33:19;;;;;;;13.87;12.67;;;22.50;99.90;;;;;;4972114;28;20218;-73
2021/07/27 07:35:45;;;;;;;12.80;11.60;;;22.60;99.90;;;;;;4976262;28;21904;-74
2021/07/27 07:38:10;;;;;;;12.63;11.53;;;22.70;99.90;;;;;;4988009;28;20210;-74
2021/07/27 07:40:36;;;;;;;10.73;9.73;;;22.80;99.90;;;;;;4980655;28;20646;-74
2021/07/27 07:43:02;;;;;;;11.47;10.47;;;22.80;99.90;;;;;;4971434;28;20859;-74
2021/07/27 07:45:28;;;;;;;11.70;10.60;;;22.80;99.90;;;;;;4985429;28;20197;-74
2021/07/27 07:47:57;;;;;;;11.73;10.53;;;22.80;99.90;;;;;;4974240;28;20641;-73
2021/07/27 07:50:22;;;;;;;11.73;10.67;;;22.80;99.90;;;;;;4966952;28;20612;-73
2021/07/27 07:53:02;;;;;;;12.37;11.27;;;22.90;99.90;;;;;;4970409;28;20634;-73
2021/07/27 07:55:28;;;;;;;11.20;10.30;;;22.90;99.90;;;;;;4971115;28;20198;-74
2021/07/27 07:57:55;;;;;;;11.67;10.67;;;23.00;99.90;;;;;;4971760;28;20652;-72
2021/07/27 08:00:22;;;;;;;13.03;11.83;;;22.90;99.90;;;;;;4972712;28;20645;-72
2021/07/27 08:02:49;;;;;;;12.27;11.20;;;22.80;99.90;;;;;;4973467;28;20672;-69
2021/07/27 08:05:14;;;;;;;12.10;11.10;;;22.90;99.90;;;;;;4975490;28;20872;-70
2021/07/27 08:07:40;;;;;;;11.60;10.60;;;22.80;99.90;;;;;;4974919;28;21065;-73
2021/07/27 08:10:06;;;;;;;11.10;10.10;;;22.80;99.90;;;;;;4965258;28;20187;-71
2021/07/27 08:12:31;;;;;;;10.87;9.97;;;22.90;99.90;;;;;;4962398;28;20281;-73
2021/07/27 08:14:57;;;;;;;9.97;9.10;;;23.00;99.90;;;;;;4970625;28;20668;-72
2021/07/27 08:17:23;;;;;;;11.07;10.17;;;23.20;99.90;;;;;;4974197;28;20259;-72
2021/07/27 08:19:49;;;;;;;11.30;10.40;;;23.40;99.90;;;;;;4975086;28;20703;-72
2021/07/27 08:22:14;;;;;;;10.40;9.40;;;23.60;99.90;;;;;;4974909;28;23855;-73
2021/07/27 08:24:40;;;;;;;9.83;8.50;;;23.70;99.90;;;;;;4970829;28;20218;-73
2021/07/27 08:27:09;;;;;;;10.87;9.70;;;23.90;99.90;;;;;;4976164;28;20191;-72
2021/07/27 08:29:36;;;;;;;9.70;8.80;;;23.90;99.90;;;;;;4974086;28;20301;-73
2021/07/27 08:32:10;;;;;;;10.97;9.50;;;23.90;99.90;;;;;;4966690;28;20649;-74
2021/07/27 08:34:37;;;;;;;8.93;8.23;;;23.90;99.90;;;;;;4975620;28;20702;-73
2021/07/27 08:37:04;;;;;;;10.30;9.03;;;23.80;99.90;;;;;;4977623;28;21200;-74
2021/07/27 08:39:30;;;;;;;11.10;10.00;;;23.90;99.90;;;;;;4980531;28;20666;-72
2021/07/27 08:42:02;;;;;;;15.67;12.83;;;23.80;99.90;;;;;;4977895;28;20637;-73
2021/07/27 08:44:30;;;;;;;14.50;12.93;;;23.80;99.90;;;;;;4977535;28;20664;-74
2021/07/27 08:46:57;;;;;;;14.80;13.20;;;23.70;99.90;;;;;;4982828;28;20986;-72
2021/07/27 08:49:22;;;;;;;13.60;12.40;;;23.50;99.90;;;;;;4995487;28;20656;-72
2021/07/27 08:51:48;;;;;;;12.97;11.77;;;23.40;99.90;;;;;;4978246;28;20621;-71
2021/07/27 08:54:16;;;;;;;11.53;10.53;;;23.30;99.90;;;;;;4977804;28;20737;-72
2021/07/27 08:56:45;;;;;;;13.40;12.20;;;23.20;99.90;;;;;;4980252;28;20213;-73
2021/07/27 08:59:12;;;;;;;12.37;11.13;;;23.10;99.90;;;;;;4975509;28;20811;-71
2021/07/27 09:01:37;;;;;;;11.43;10.43;;;23.10;99.90;;;;;;4981157;28;20642;-73
2021/07/27 09:04:03;;;;;;;11.77;10.77;;;23.10;99.90;;;;;;4987213;28;21045;-73
2021/07/27 09:06:28;;;;;;;12.03;10.93;;;23.10;99.90;;;;;;4980164;28;20194;-72
2021/07/27 09:09:06;;;;;;;12.50;11.40;;;23.10;99.90;;;;;;4984471;28;20226;-73
2021/07/27 09:11:32;;;;;;;12.60;11.60;;;23.00;99.90;;;;;;4989048;28;20657;-74
2021/07/27 09:13:58;;;;;;;12.47;11.37;;;23.00;99.90;;;;;;4980303;28;21006;-74
2021/07/27 09:16:24;;;;;;;12.13;10.67;;;23.00;99.90;;;;;;4977452;28;21168;-74
2021/07/27 09:18:59;;;;;;;12.10;11.10;;;23.10;99.90;;;;;;4980585;28;20210;-74
2021/07/27 09:21:25;;;;;;;12.87;11.57;;;23.20;99.90;;;;;;4979585;28;20183;-74
2021/07/27 09:23:51;;;;;;;11.00;10.10;;;23.30;99.90;;;;;;4978159;28;20617;-73
2021/07/27 09:26:21;;;;;;;11.67;10.73;;;23.20;99.90;;;;;;4983631;28;20626;-74
2021/07/27 09:28:46;;;;;;;10.43;9.47;;;23.20;99.90;;;;;;4981254;28;20214;-74
2021/07/27 09:31:12;;;;;;;9.10;8.37;;;23.20;99.90;;;;;;4978236;28;20651;-74
2021/07/27 09:33:38;;;;;;;9.27;8.57;;;23.30;99.90;;;;;;4978297;28;20657;-73
2021/07/27 09:36:04;;;;;;;9.47;8.67;;;23.40;99.90;;;;;;4977775;28;20208;-74
2021/07/27 09:38:32;;;;;;;8.63;7.87;;;23.40;99.90;;;;;;4983575;28;20238;-72
2021/07/27 09:41:00;;;;;;;8.73;8.03;;;23.40;99.90;;;;;;4985623;28;20610;-73
2021/07/27 09:43:27;;;;;;;9.53;8.73;;;23.50;99.90;;;;;;4981416;28;21299;-75
2021/07/27 09:46:00;;;;;;;8.93;8.23;;;23.60;99.90;;;;;;4976297;28;21008;-72
2021/07/27 09:48:26;;;;;;;10.40;9.60;;;23.50;99.90;;;;;;4984405;28;20636;-74
2021/07/27 09:50:53;;;;;;;10.00;9.20;;;23.60;99.90;;;;;;4979032;28;20704;-73
2021/07/27 09:53:19;;;;;;;10.07;9.17;;;23.60;99.90;;;;;;4974863;28;20740;-73
2021/07/27 09:55:45;;;;;;;9.57;8.83;;;23.70;99.90;;;;;;4979170;28;20642;-74
2021/07/27 09:58:11;;;;;;;9.07;8.37;;;24.00;99.90;;;;;;4979655;28;20646;-73
2021/07/27 10:01:08;;;;;;;10.70;9.60;;;24.10;99.90;;;;;;4980760;28;21082;-72
2021/07/27 10:03:43;;;;;;;9.73;8.93;;;24.30;99.90;;;;;;4979759;28;21576;-71
2021/07/27 10:06:09;;;;;;;9.60;8.87;;;24.30;99.90;;;;;;5014062;23;20762;-92
2021/07/27 10:08:39;;;;;;;10.63;9.83;;;24.20;99.90;;;;;;5045836;28;20664;-93
2021/07/27 10:11:11;;;;;;;10.73;9.93;;;24.20;99.90;;;;;;5013487;28;20745;-92
2021/07/27 10:16:25;;;;;;;12.10;10.90;;;23.80;99.90;;;;;;5105438;23;20691;-92
2021/07/27 10:18:55;;;;;;;11.00;10.07;;;23.90;99.90;;;;;;5011721;28;20664;-93
2021/07/27 10:21:27;;;;;;;13.20;9.60;;;24.00;99.90;;;;;;5011136;28;20640;-93
2021/07/27 10:24:26;;;;;;;10.27;9.47;;;24.20;99.90;;;;;;5024544;28;20691;-93
2021/07/27 10:27:06;;;;;;;10.60;9.63;;;24.30;99.90;;;;;;5011860;28;20617;-92
2021/07/27 10:29:32;;;;;;;10.83;9.90;;;24.20;99.90;;;;;;4995086;28;20650;-93
2021/07/27 10:31:59;;;;;;;9.57;8.67;;;24.20;99.90;;;;;;5012518;28;20688;-93
2021/07/27 10:34:32;;;;;;;10.80;9.70;;;24.20;99.90;;;;;;5027672;28;20182;-93
2021/07/27 10:37:26;;;;;;;10.10;9.20;;;24.40;99.90;;;;;;5031606;28;20593;-94
2021/07/27 13:04:51;;;;;;;9.23;8.53;;;27.50;99.90;;;;;;4991776;28;20645;-93
2021/07/27 13:07:17;;;;;;;9.53;8.73;;;27.70;99.90;;;;;;4970499;28;20636;-92
2021/07/27 13:09:42;;;;;;;9.80;9.07;;;27.80;99.90;;;;;;4967707;28;21933;-92
2021/07/27 13:12:08;;;;;;;9.40;8.70;;;27.90;99.90;;;;;;4982199;28;20697;-92
2021/07/27 13:14:34;;;;;;;10.13;9.23;;;27.60;99.90;;;;;;4982060;28;20195;-92
2021/07/27 13:17:03;;;;;;;14.10;11.00;;;27.60;99.90;;;;;;4975299;28;20194;-91
2021/07/27 13:19:28;;;;;;;9.53;8.63;;;27.70;99.90;;;;;;4980661;28;20245;-91
2021/07/27 13:21:54;;;;;;;9.70;8.57;;;27.80;99.90;;;;;;4982315;28;20641;-91
2021/07/27 13:24:20;;;;;;;9.20;8.40;;;28.00;99.90;;;;;;4980452;28;20194;-92
2021/07/27 13:26:46;;;;;;;9.33;8.63;;;28.00;99.90;;;;;;4979141;28;20230;-91
2021/07/27 13:29:12;;;;;;;9.70;8.93;;;28.10;99.90;;;;;;4976915;28;20630;-91
2021/07/27 13:31:37;;;;;;;10.47;9.60;;;27.90;99.90;;;;;;4978885;28;20203;-90
2021/07/27 13:34:03;;;;;;;8.63;7.83;;;28.00;99.90;;;;;;4975740;28;20224;-89
2021/07/27 13:36:30;;;;;;;9.33;8.43;;;28.00;99.90;;;;;;4979419;28;20640;-89
2021/07/27 13:38:56;;;;;;;9.07;8.23;;;28.10;99.90;;;;;;4967595;28;20268;-90
2021/07/27 13:41:21;;;;;;;8.70;8.10;;;28.30;99.90;;;;;;4972098;28;20649;-91
2021/07/27 13:43:47;;;;;;;9.60;8.90;;;28.50;99.90;;;;;;4970393;28;20279;-91
2021/07/27 13:46:12;;;;;;;9.40;8.60;;;28.70;99.90;;;;;;4973363;28;20274;-91
2021/07/27 13:48:38;;;;;;;8.70;8.07;;;28.60;99.90;;;;;;4966543;28;20184;-91
2021/07/27 13:51:03;;;;;;;10.00;8.90;;;28.70;99.90;;;;;;4967356;28;20228;-91
2021/07/27 13:53:29;;;;;;;8.43;7.80;;;28.90;99.90;;;;;;4974720;28;20203;-91
2021/07/27 13:55:57;;;;;;;9.10;8.40;;;29.10;99.90;;;;;;4976401;28;20655;-91
2021/07/27 13:58:25;;;;;;;8.93;8.07;;;29.30;99.90;;;;;;4972005;28;20236;-91
2021/07/27 14:00:50;;;;;;;8.97;8.27;;;29.30;99.90;;;;;;4977281;28;20665;-92
2021/07/27 14:03:16;;;;;;;8.83;8.03;;;29.30;99.90;;;;;;4976701;28;20970;-92
2021/07/27 14:05:43;;;;;;;9.37;8.67;;;29.50;99.90;;;;;;4973507;28;20213;-92
2021/07/27 14:08:09;;;;;;;8.20;7.40;;;29.70;99.90;;;;;;4971268;28;20672;-91
2021/07/27 14:10:34;;;;;;;8.73;8.13;;;29.80;99.90;;;;;;4970788;28;20704;-92
2021/07/27 14:13:00;;;;;;;8.33;7.73;;;29.90;99.90;;;;;;4973280;28;20203;-91
2021/07/27 14:15:25;;;;;;;7.70;7.07;;;30.00;99.90;;;;;;4973599;28;20186;-92
2021/07/27 14:17:51;;;;;;;8.20;7.63;;;30.20;99.90;;;;;;4975102;28;20199;-93
2021/07/27 14:20:17;;;;;;;7.70;7.10;;;30.20;99.90;;;;;;4971446;28;20238;-93
2021/07/27 14:22:42;;;;;;;8.93;8.13;;;30.30;99.90;;;;;;4980254;28;20206;-94
2021/07/27 14:25:10;;;;;;;7.70;7.10;;;30.30;99.90;;;;;;4976290;28;20187;-92
2021/07/27 14:27:37;;;;;;;8.33;7.73;;;30.30;99.90;;;;;;4982982;28;20241;-94
2021/07/27 14:30:05;;;;;;;8.60;7.90;;;30.20;99.90;;;;;;4987526;28;20629;-94
2021/07/27 14:32:37;;;;;;;8.03;7.43;;;30.00;99.90;;;;;;4976400;28;20618;-94
2021/07/27 14:35:02;;;;;;;8.90;8.10;;;30.00;99.90;;;;;;4976037;28;20633;-92
2021/07/27 14:37:28;;;;;;;9.10;8.40;;;30.20;99.90;;;;;;4976328;28;21077;-93
2021/07/27 14:39:53;;;;;;;8.17;7.37;;;30.20;99.90;;;;;;4976210;28;20777;-93
2021/07/27 14:42:21;;;;;;;8.30;7.70;;;30.30;99.90;;;;;;4978594;28;20281;-93
2021/07/27 14:44:48;;;;;;;9.67;8.87;;;30.30;99.90;;;;;;4997483;28;20194;-93
2021/07/27 14:47:13;;;;;;;8.53;7.83;;;30.40;99.90;;;;;;4975028;28;20684;-92
2021/07/27 14:49:39;;;;;;;9.07;8.37;;;30.40;99.90;;;;;;4972156;28;20654;-93
2021/07/27 14:52:04;;;;;;;8.80;8.10;;;30.40;99.90;;;;;;4984382;28;20214;-93
2021/07/27 14:54:30;;;;;;;8.40;7.80;;;30.30;99.90;;;;;;4984459;28;20183;-92
2021/07/27 14:56:58;;;;;;;9.40;8.70;;;30.50;99.90;;;;;;4974708;28;20612;-91
2021/07/27 14:59:26;;;;;;;8.43;7.83;;;30.70;99.90;;;;;;4970785;28;20233;-91
2021/07/27 15:01:52;;;;;;;8.97;8.37;;;30.80;99.90;;;;;;4964437;28;20822;-91
2021/07/27 15:04:17;;;;;;;9.50;8.90;;;31.00;99.90;;;;;;4970424;28;21244;-90
2021/07/27 15:06:43;;;;;;;9.20;8.40;;;31.10;99.90;;;;;;4974955;28;20543;-90
2021/07/27 15:09:09;;;;;;;9.70;8.87;;;31.10;99.90;;;;;;4970806;28;20593;-91
2021/07/27 15:11:34;;;;;;;9.47;8.53;;;30.80;99.90;;;;;;4970509;28;20563;-91
2021/07/27 15:14:00;;;;;;;9.40;8.60;;;30.50;99.90;;;;;;4971148;28;20183;-92
2021/07/27 15:16:25;;;;;;;9.20;8.50;;;30.30;99.90;;;;;;4972886;28;20752;-91
2021/07/27 15:18:51;;;;;;;9.53;8.83;;;30.10;99.90;;;;;;4972991;28;20203;-93
2021/07/27 15:21:17;;;;;;;10.30;9.50;;;29.80;99.90;;;;;;4978023;28;20218;-94
2021/07/27 15:23:45;;;;;;;19.90;18.37;;;29.60;99.90;;;;;;4978731;28;20242;-93
2021/07/27 15:26:11;;;;;;;10.20;9.23;;;29.50;99.90;;;;;;4980726;28;20186;-94
2021/07/27 15:28:41;;;;;;;9.60;8.83;;;29.50;99.90;;;;;;4981886;28;20664;-94
2021/07/27 15:31:07;;;;;;;9.60;8.90;;;29.50;99.90;;;;;;4982789;28;20669;-93
2021/07/27 15:33:33;;;;;;;10.50;9.70;;;29.60;99.90;;;;;;4973754;28;20622;-94